createdAt,value
2022-09-24T00:03:31.240Z,96567.50
2022-09-24T00:08:33.778Z,96565.00
2022-09-24T00:13:36.230Z,96547.75
2022-09-24T00:18:38.859Z,96562.22
2022-09-24T00:23:41.175Z,96575.53
2022-09-24T00:28:43.366Z,96542.16
2022-09-24T00:33:45.378Z,96559.88
2022-09-24T00:38:56.313Z,96563.31
2022-09-24T00:43:59.383Z,96541.25
2022-09-24T00:49:11.184Z,96559.28
2022-09-24T00:54:24.130Z,96551.28
2022-09-24T00:59:28.432Z,96554.03
2022-09-24T01:04:30.893Z,96530.75
2022-09-24T01:09:34.190Z,96541.78
2022-09-24T01:14:45.999Z,96549.78
2022-09-24T01:20:15.986Z,96519.88
2022-09-24T01:25:30.389Z,96548.84
2022-09-24T01:30:38.521Z,96519.81
2022-09-24T01:35:45.100Z,96547.41
2022-09-24T01:40:48.920Z,96546.88
2022-09-24T01:45:52.481Z,96547.34
2022-09-24T01:51:09.831Z,96559.25
2022-09-24T01:56:38.900Z,96559.41
2022-09-24T02:01:51.361Z,96543.78
2022-09-24T02:07:02.315Z,96533.34
2022-09-24T02:12:07.690Z,96537.66
2022-09-24T02:17:12.212Z,96546.56
2022-09-24T02:22:14.806Z,96543.13
2022-09-24T02:27:18.433Z,96543.97
2022-09-24T02:32:23.730Z,96544.97
2022-09-24T02:37:26.012Z,96533.72
2022-09-24T02:42:28.973Z,96539.81
2022-09-24T02:47:31.213Z,96549.94
2022-09-24T02:52:33.583Z,96538.94
2022-09-24T02:57:36.143Z,96573.47
2022-09-24T03:02:38.314Z,96555.69
2022-09-24T03:07:40.654Z,96556.66
2022-09-24T03:12:44.014Z,96537.13
2022-09-24T03:17:46.053Z,96558.50
2022-09-24T03:22:52.166Z,96549.06
2022-09-24T03:27:54.371Z,96559.16
2022-09-24T03:32:56.722Z,96572.19
2022-09-24T03:37:58.862Z,96562.16
2022-09-24T03:43:00.913Z,96569.97
2022-09-24T03:48:03.148Z,96567.09
2022-09-24T03:53:05.469Z,96588.38
2022-09-24T03:58:07.514Z,96574.78
2022-09-24T04:03:10.321Z,96570.94
2022-09-24T04:08:12.456Z,96610.78
2022-09-24T04:13:15.854Z,96593.41
2022-09-24T04:18:19.286Z,96631.44
2022-09-24T04:23:21.622Z,96610.50
2022-09-24T04:28:24.571Z,96616.56
2022-09-24T04:33:26.911Z,96641.13
2022-09-24T04:38:29.104Z,96635.19
2022-09-24T04:43:31.305Z,96639.41
2022-09-24T04:48:34.799Z,96640.25
2022-09-24T04:53:37.525Z,96640.28
2022-09-24T04:58:40.123Z,96602.41
2022-09-24T05:03:42.481Z,96625.59
2022-09-24T05:08:44.519Z,96637.44
2022-09-24T05:13:46.573Z,96627.91
2022-09-24T05:18:48.580Z,96628.31
2022-09-24T05:23:50.788Z,96590.56
2022-09-24T05:28:53.810Z,96599.34
2022-09-24T05:33:56.132Z,96625.50
2022-09-24T05:38:58.513Z,96604.84
2022-09-24T05:44:00.597Z,96622.22
2022-09-24T05:49:02.983Z,96627.88
2022-09-24T05:54:05.435Z,96645.38
2022-09-24T05:59:07.840Z,96630.75
2022-09-24T06:04:12.293Z,96586.47
2022-09-24T06:09:14.942Z,96592.59
2022-09-24T06:14:16.979Z,96582.41
2022-09-24T06:19:19.102Z,96557.25
2022-09-24T06:24:21.404Z,96571.44
2022-09-24T06:29:23.555Z,96578.06
2022-09-24T06:34:25.630Z,96554.09
2022-09-24T06:39:27.942Z,96549.44
2022-09-24T06:44:29.953Z,96538.44
2022-09-24T06:49:34.285Z,96560.38
2022-09-24T06:54:36.932Z,96568.81
2022-09-24T06:59:39.062Z,96578.00
2022-09-24T07:04:41.192Z,96581.66
2022-09-24T07:09:43.384Z,96570.16
2022-09-24T07:14:45.895Z,96579.00
2022-09-24T07:19:48.222Z,96580.31
2022-09-24T07:24:50.979Z,96590.41
2022-09-24T07:30:11.813Z,96596.31
2022-09-24T07:35:14.086Z,96575.81
2022-09-24T07:40:16.577Z,96603.19
2022-09-24T07:45:19.003Z,96592.47
2022-09-24T07:50:25.327Z,96604.34
2022-09-24T07:55:27.962Z,96583.34
2022-09-24T08:00:29.996Z,96601.50
2022-09-24T08:05:33.326Z,96575.34
2022-09-24T08:10:35.557Z,96609.34
2022-09-24T08:15:37.720Z,96602.97
2022-09-24T08:20:41.107Z,96589.28
2022-09-24T08:25:43.249Z,96613.06
2022-09-24T08:30:45.816Z,96593.06
2022-09-24T08:35:48.047Z,96573.00
2022-09-24T08:41:27.364Z,96579.56
2022-09-24T08:46:59.087Z,96601.00
2022-09-24T08:52:20.353Z,96587.69
2022-09-24T08:57:22.973Z,96589.44
2022-09-24T09:02:43.658Z,96590.34
2022-09-24T09:07:56.490Z,96574.38
2022-09-24T09:13:24.295Z,96596.31
2022-09-24T09:18:46.976Z,96579.09
2022-09-24T09:23:52.410Z,96582.56
2022-09-24T09:29:00.324Z,96566.34
2022-09-24T09:34:11.602Z,96591.44
2022-09-24T09:39:30.527Z,96592.16
2022-09-24T09:44:41.861Z,96539.69
2022-09-24T09:49:47.021Z,96570.84
2022-09-24T09:54:50.314Z,96561.34
2022-09-24T09:59:56.157Z,96552.13
2022-09-24T10:04:59.938Z,96548.63
2022-09-24T10:10:19.193Z,96542.41
2022-09-24T10:15:24.916Z,96557.97
2022-09-24T10:20:33.930Z,96543.44
2022-09-24T10:25:36.918Z,96541.22
2022-09-24T10:30:51.029Z,96520.66
2022-09-24T10:36:24.283Z,96543.75
2022-09-24T10:41:28.808Z,96545.44
2022-09-24T10:47:05.402Z,96540.75
2022-09-24T10:52:29.891Z,96516.84
2022-09-24T10:57:39.991Z,96523.53
2022-09-24T11:02:42.266Z,96510.16
2022-09-24T11:08:02.522Z,96524.34
2022-09-24T11:13:19.973Z,96513.53
2022-09-24T11:18:42.171Z,96502.22
2022-09-24T11:23:59.754Z,96512.44
2022-09-24T11:29:08.148Z,96500.84
2022-09-24T11:34:16.207Z,96494.59
2022-09-24T11:39:45.470Z,96487.91
2022-09-24T11:44:57.505Z,96479.69
2022-09-24T11:50:24.272Z,96475.59
2022-09-24T11:55:37.394Z,96481.66
2022-09-24T12:01:06.566Z,96477.47
2022-09-24T12:06:20.405Z,96480.56
2022-09-24T12:11:37.153Z,96455.16
2022-09-24T12:16:42.162Z,96454.38
2022-09-24T12:21:47.972Z,96488.78
2022-09-24T12:26:52.862Z,96482.47
2022-09-24T12:32:30.669Z,96484.41
2022-09-24T12:37:41.490Z,96500.63
2022-09-24T12:42:46.261Z,96506.22
2022-09-24T12:48:14.006Z,96502.59
2022-09-24T12:53:24.902Z,96476.84
2022-09-24T12:58:43.933Z,96484.59
2022-09-24T13:03:47.491Z,96488.50
2022-09-24T13:08:50.759Z,96475.25
2022-09-24T13:14:21.947Z,96480.78
2022-09-24T13:19:37.202Z,96467.56
2022-09-24T13:24:49.116Z,96451.34
2022-09-24T13:30:15.305Z,96461.72
2022-09-24T13:35:26.925Z,96466.66
2022-09-24T13:40:35.195Z,96451.31
2022-09-24T13:45:43.065Z,96452.25
2022-09-24T13:50:52.146Z,96443.50
2022-09-24T13:55:59.021Z,96453.97
2022-09-24T14:01:25.951Z,96464.00
2022-09-24T14:06:42.843Z,96462.25
2022-09-24T14:11:52.871Z,96449.88
2022-09-24T14:17:06.941Z,96443.28
2022-09-24T14:22:20.722Z,96454.22
2022-09-24T14:27:25.428Z,96452.81
2022-09-24T14:32:33.679Z,96446.41
2022-09-24T14:37:41.644Z,96442.78
2022-09-24T14:42:54.252Z,96445.25
2022-09-24T14:48:06.795Z,96450.28
2022-09-24T14:53:21.341Z,96433.25
2022-09-24T14:58:31.489Z,96462.63
2022-09-24T15:03:54.588Z,96458.69
2022-09-24T15:09:00.991Z,96459.84
2022-09-24T15:14:17.408Z,96463.47
2022-09-24T15:19:29.266Z,96450.06
2022-09-24T15:24:31.668Z,96442.41
2022-09-24T15:29:34.139Z,96451.00
2022-09-24T15:34:36.415Z,96450.69
2022-09-24T15:39:39.199Z,96471.09
2022-09-24T15:44:43.409Z,96473.25
2022-09-24T15:49:45.620Z,96479.25
2022-09-24T15:54:47.803Z,96490.78
2022-09-24T15:59:50.732Z,96485.84
2022-09-24T16:04:53.089Z,96507.41
2022-09-24T16:09:55.198Z,96502.81
2022-09-24T16:14:59.431Z,96526.63
2022-09-24T16:20:02.286Z,96523.81
2022-09-24T16:25:05.087Z,96527.72
2022-09-24T16:30:07.732Z,96528.44
2022-09-24T16:35:13.685Z,96547.41
2022-09-24T16:40:16.256Z,96548.63
2022-09-24T16:45:18.521Z,96559.13
2022-09-24T16:50:23.758Z,96543.63
2022-09-24T16:55:25.913Z,96563.25
2022-09-24T17:00:28.187Z,96544.81
2022-09-24T17:05:32.364Z,96569.75
2022-09-24T17:10:34.676Z,96565.78
2022-09-24T17:15:37.013Z,96584.72
2022-09-24T17:20:39.229Z,96556.41
2022-09-24T17:25:41.593Z,96574.25
2022-09-24T17:30:43.732Z,96582.31
2022-09-24T17:35:57.034Z,96577.53
2022-09-24T17:41:03.374Z,96597.72
2022-09-24T17:46:11.521Z,96598.00
2022-09-24T17:51:23.033Z,96589.97
2022-09-24T17:56:27.199Z,96592.84
2022-09-24T18:01:36.308Z,96594.50
2022-09-24T18:06:40.452Z,96604.44
2022-09-24T18:11:45.830Z,96613.75
2022-09-24T18:16:49.509Z,96608.91
2022-09-24T18:21:51.737Z,96591.41
2022-09-24T18:26:53.855Z,96605.81
2022-09-24T18:31:55.987Z,96616.63
2022-09-24T18:36:58.297Z,96600.72
2022-09-24T18:42:00.492Z,96613.47
2022-09-24T18:47:03.307Z,96617.00
2022-09-24T18:52:06.158Z,96615.38
2022-09-24T18:57:08.404Z,96608.59
2022-09-24T19:02:14.294Z,96598.66
2022-09-24T19:07:16.723Z,96609.72
2022-09-24T19:12:19.950Z,96600.50
2022-09-24T19:17:22.486Z,96618.81
2022-09-24T19:22:24.536Z,96614.69
2022-09-24T19:27:26.752Z,96601.13
2022-09-24T19:32:28.933Z,96608.03
2022-09-24T19:37:31.177Z,96618.97
2022-09-24T19:42:33.535Z,96618.00
2022-09-24T19:47:35.579Z,96619.09
2022-09-24T19:52:37.899Z,96602.97
2022-09-24T19:57:40.403Z,96619.34
2022-09-24T20:02:42.726Z,96627.41
2022-09-24T20:07:45.997Z,96601.34
2022-09-24T20:12:51.898Z,96614.47
2022-09-24T20:17:56.205Z,96606.22
2022-09-24T20:22:58.413Z,96617.03
2022-09-24T20:28:00.646Z,96617.03
2022-09-24T20:33:02.687Z,96602.09
2022-09-24T20:38:05.724Z,96622.63
2022-09-24T20:43:08.905Z,96619.25
2022-09-24T20:48:12.307Z,96631.22
2022-09-24T20:53:21.920Z,96602.34
2022-09-24T20:58:24.177Z,96618.13
2022-09-24T21:03:43.322Z,96613.38
2022-09-24T21:08:47.106Z,96639.16
2022-09-24T21:13:51.771Z,96633.63
2022-09-24T21:18:57.389Z,96622.78
2022-09-24T21:24:01.457Z,96632.78
2022-09-24T21:29:09.508Z,96639.28
2022-09-24T21:34:13.531Z,96635.63
2022-09-24T21:39:18.572Z,96629.63
2022-09-24T21:44:43.189Z,96615.84
2022-09-24T21:49:48.227Z,96601.34
2022-09-24T21:54:50.251Z,96625.13
2022-09-24T22:00:01.558Z,96622.38
2022-09-24T22:05:07.328Z,96616.22
2022-09-24T22:10:10.553Z,96615.81
2022-09-24T22:15:12.729Z,96606.34
2022-09-24T22:20:14.926Z,96599.91
2022-09-24T22:25:17.466Z,96606.69
2022-09-24T22:30:19.841Z,96599.81
2022-09-24T22:35:43.237Z,96590.56
2022-09-24T22:40:45.898Z,96626.00
2022-09-24T22:45:48.234Z,96611.59
2022-09-24T22:50:50.463Z,96593.56
2022-09-24T22:56:07.353Z,96617.28
2022-09-24T23:01:17.093Z,96611.72
2022-09-24T23:06:21.120Z,96604.50
2022-09-24T23:11:29.318Z,96595.22
2022-09-24T23:16:38.204Z,96589.44
2022-09-24T23:21:40.702Z,96594.28
2022-09-24T23:26:44.244Z,96591.00
2022-09-24T23:31:46.430Z,96598.78
2022-09-24T23:36:48.688Z,96579.84
2022-09-24T23:41:51.036Z,96583.97
2022-09-24T23:46:53.120Z,96591.97
2022-09-24T23:51:55.901Z,96587.31
2022-09-24T23:56:58.051Z,96577.06
